createdAt,value
2023-09-27T00:00:11.397Z,7.60
2023-09-27T00:02:46.108Z,8.30
2023-09-27T00:05:15.165Z,7.10
2023-09-27T00:07:43.073Z,8.07
2023-09-27T00:10:11.269Z,7.97
2023-09-27T00:12:39.758Z,8.20
2023-09-27T00:15:09.482Z,7.73
2023-09-27T00:17:37.180Z,7.70
2023-09-27T00:20:06.513Z,9.33
2023-09-27T00:22:34.282Z,9.70
2023-09-27T00:25:03.589Z,9.50
2023-09-27T00:27:31.197Z,9.30
2023-09-27T00:30:02.126Z,9.47
2023-09-27T00:32:29.865Z,9.43
2023-09-27T00:34:57.500Z,8.60
2023-09-27T00:37:26.183Z,9.33
2023-09-27T00:39:55.418Z,9.90
2023-09-27T00:42:24.876Z,9.10
2023-09-27T00:44:53.844Z,9.20
2023-09-27T00:47:21.483Z,9.00
2023-09-27T00:49:51.022Z,9.30
2023-09-27T00:52:19.640Z,8.27
2023-09-27T00:54:47.278Z,9.33
2023-09-27T00:57:15.106Z,9.93
2023-09-27T00:59:43.908Z,9.87
2023-09-27T01:02:11.813Z,9.33
2023-09-27T01:04:40.102Z,9.90
2023-09-27T01:07:09.458Z,11.00
2023-09-27T01:09:38.652Z,9.63
2023-09-27T01:12:06.558Z,9.60
2023-09-27T01:14:36.120Z,10.70
2023-09-27T01:17:11.601Z,10.47
2023-09-27T01:19:39.937Z,10.23
2023-09-27T01:22:07.701Z,10.23
2023-09-27T01:24:41.765Z,11.57
2023-09-27T01:27:11.254Z,10.80
2023-09-27T01:29:39.817Z,11.70
2023-09-27T01:32:07.475Z,11.70
2023-09-27T01:34:35.124Z,12.00
2023-09-27T01:37:03.381Z,11.90
2023-09-27T01:39:31.631Z,11.70
2023-09-27T01:41:59.262Z,11.63
2023-09-27T01:44:27.955Z,10.47
2023-09-27T01:46:56.900Z,12.17
2023-09-27T01:49:24.940Z,12.13
2023-09-27T01:51:52.810Z,12.30
2023-09-27T01:54:20.500Z,12.10
2023-09-27T01:56:48.864Z,12.50
2023-09-27T01:59:16.669Z,12.47
2023-09-27T02:01:44.424Z,11.17
2023-09-27T02:04:13.520Z,12.20
2023-09-27T02:06:41.139Z,12.77
2023-09-27T02:09:10.148Z,11.20
2023-09-27T02:11:37.898Z,11.80
2023-09-27T02:14:05.799Z,12.77
2023-09-27T02:16:34.535Z,13.27
2023-09-27T02:19:06.377Z,11.73
2023-09-27T02:21:34.549Z,12.00
2023-09-27T02:24:02.081Z,12.67
2023-09-27T02:26:30.383Z,13.60
2023-09-27T02:28:58.497Z,11.77
2023-09-27T02:31:27.206Z,10.53
2023-09-27T02:33:54.778Z,11.60
2023-09-27T02:36:22.365Z,12.83
2023-09-27T02:38:51.098Z,12.80
2023-09-27T02:41:19.119Z,12.17
2023-09-27T02:43:46.899Z,13.40
2023-09-27T02:46:14.476Z,12.23
2023-09-27T02:48:42.116Z,13.10
2023-09-27T02:51:09.817Z,15.37
2023-09-27T02:53:37.728Z,12.37
2023-09-27T02:56:06.491Z,13.53
2023-09-27T02:58:34.159Z,13.50
2023-09-27T03:01:02.371Z,14.17
2023-09-27T03:03:31.954Z,15.40
2023-09-27T03:06:00.791Z,13.97
2023-09-27T03:08:30.659Z,16.87
2023-09-27T03:10:58.357Z,16.10
2023-09-27T03:13:27.234Z,15.17
2023-09-27T03:15:59.537Z,15.03
2023-09-27T03:18:27.239Z,15.93
2023-09-27T03:20:55.130Z,17.33
2023-09-27T03:23:23.037Z,17.00
2023-09-27T03:25:50.660Z,18.53
2023-09-27T03:28:18.805Z,16.03
2023-09-27T03:30:48.398Z,16.27
2023-09-27T03:33:16.966Z,16.57
2023-09-27T03:35:44.602Z,17.37
2023-09-27T03:38:12.289Z,16.20
2023-09-27T03:40:43.255Z,17.87
2023-09-27T03:43:10.996Z,17.17
2023-09-27T03:45:39.712Z,15.20
2023-09-27T03:48:09.623Z,18.30
2023-09-27T03:50:37.805Z,16.30
2023-09-27T03:53:06.796Z,16.40
2023-09-27T03:55:34.875Z,17.40
2023-09-27T03:58:04.044Z,16.90
2023-09-27T04:00:31.652Z,19.07
2023-09-27T04:02:59.537Z,17.07
2023-09-27T04:05:27.805Z,17.97
2023-09-27T04:07:56.892Z,17.20
2023-09-27T04:10:25.854Z,18.30
2023-09-27T04:12:57.512Z,17.47
2023-09-27T04:15:25.308Z,16.70
2023-09-27T04:17:52.982Z,17.20
2023-09-27T04:20:22.730Z,18.70
2023-09-27T04:22:51.130Z,19.43
2023-09-27T04:25:20.166Z,18.90
2023-09-27T04:27:50.431Z,18.83
2023-09-27T04:30:22.987Z,18.47
2023-09-27T04:32:52.031Z,18.03
2023-09-27T04:35:20.986Z,18.97
2023-09-27T04:37:49.454Z,18.80
2023-09-27T04:40:17.756Z,19.93
2023-09-27T04:42:47.113Z,18.37
2023-09-27T04:45:15.801Z,17.90
2023-09-27T04:47:45.940Z,18.57
2023-09-27T04:50:14.883Z,18.67
2023-09-27T04:52:44.270Z,18.07
2023-09-27T04:55:14.030Z,18.53
2023-09-27T04:57:41.876Z,19.83
2023-09-27T05:00:21.067Z,19.50
2023-09-27T05:02:53.174Z,19.07
2023-09-27T05:05:21.218Z,16.80
2023-09-27T05:07:54.757Z,17.23
2023-09-27T05:10:22.924Z,17.53
2023-09-27T05:12:50.694Z,18.90
2023-09-27T05:15:18.853Z,17.97
2023-09-27T05:17:46.738Z,22.07
2023-09-27T05:20:16.999Z,19.13
2023-09-27T05:22:46.880Z,16.57
2023-09-27T05:25:15.662Z,18.10
2023-09-27T05:27:44.247Z,18.90
2023-09-27T05:30:12.843Z,20.33
2023-09-27T05:32:44.320Z,18.80
2023-09-27T05:35:13.463Z,17.97
2023-09-27T05:37:42.952Z,17.60
2023-09-27T05:40:12.595Z,17.93
2023-09-27T05:42:40.485Z,19.57
2023-09-27T05:45:13.045Z,17.40
2023-09-27T05:47:42.686Z,16.80
2023-09-27T05:50:13.583Z,19.50
2023-09-27T05:52:47.086Z,18.70
2023-09-27T05:55:17.320Z,16.87
2023-09-27T05:57:46.067Z,16.50
2023-09-27T06:00:30.963Z,17.10
2023-09-27T06:03:00.293Z,16.03
2023-09-27T06:05:29.289Z,15.80
2023-09-27T06:07:56.856Z,16.97
2023-09-27T06:10:25.291Z,15.87
2023-09-27T06:12:52.941Z,16.30
2023-09-27T06:15:45.231Z,16.97
2023-09-27T06:18:13.438Z,16.17
2023-09-27T06:20:41.515Z,15.07
2023-09-27T06:23:11.684Z,15.40
2023-09-27T06:25:44.464Z,16.53
2023-09-27T06:28:14.577Z,15.60
2023-09-27T06:30:42.516Z,14.67
2023-09-27T06:33:35.519Z,15.20
2023-09-27T06:36:06.732Z,15.17
2023-09-27T06:38:36.555Z,14.47
2023-09-27T06:41:05.367Z,13.93
2023-09-27T06:43:33.034Z,14.53
2023-09-27T06:46:02.748Z,12.93
2023-09-27T06:48:34.867Z,13.80
2023-09-27T06:51:03.720Z,11.40
2023-09-27T06:53:33.767Z,11.40
2023-09-27T06:56:04.833Z,11.77
2023-09-27T06:58:32.497Z,11.03
2023-09-27T07:01:00.149Z,9.50
2023-09-27T07:03:30.587Z,9.43
2023-09-27T07:05:59.750Z,8.80
2023-09-27T07:08:27.493Z,8.30
2023-09-27T07:10:55.178Z,8.43
2023-09-27T07:13:24.885Z,7.67
2023-09-27T07:15:53.090Z,8.10
2023-09-27T07:18:24.576Z,7.90
2023-09-27T07:20:53.707Z,6.97
2023-09-27T07:23:22.478Z,5.93
2023-09-27T07:25:52.156Z,6.90
2023-09-27T07:28:19.783Z,6.70
2023-09-27T07:30:48.138Z,6.47
2023-09-27T07:33:18.519Z,5.93
2023-09-27T07:35:47.390Z,5.73
2023-09-27T07:38:15.522Z,5.73
2023-09-27T07:40:47.788Z,5.40
2023-09-27T07:43:15.395Z,6.00
2023-09-27T07:45:44.577Z,6.00
2023-09-27T07:48:12.198Z,6.07
2023-09-27T07:50:41.006Z,6.60
2023-09-27T07:53:10.358Z,6.50
2023-09-27T07:55:44.589Z,6.37
2023-09-27T07:58:15.092Z,7.00
2023-09-27T08:00:43.078Z,6.80
2023-09-27T08:03:12.126Z,6.70
2023-09-27T08:05:44.774Z,7.17
2023-09-27T08:08:14.062Z,5.70
2023-09-27T08:10:46.735Z,7.43
2023-09-27T08:13:16.076Z,6.27
2023-09-27T08:15:44.078Z,6.70
2023-09-27T08:18:13.787Z,6.17
2023-09-27T08:20:41.808Z,5.80
2023-09-27T08:23:09.578Z,5.57
2023-09-27T08:25:39.154Z,5.70
2023-09-27T08:28:07.840Z,5.60
2023-09-27T08:30:36.209Z,5.60
2023-09-27T08:33:04.309Z,6.70
2023-09-27T08:35:32.031Z,5.83
2023-09-27T08:38:00.672Z,5.60
2023-09-27T08:40:29.106Z,5.83
2023-09-27T08:43:01.262Z,5.60
2023-09-27T08:45:29.481Z,5.60
2023-09-27T08:47:57.514Z,5.80
2023-09-27T08:50:26.406Z,5.47
2023-09-27T08:52:54.697Z,5.00
2023-09-27T08:55:23.553Z,6.10
2023-09-27T08:57:53.083Z,5.37
2023-09-27T09:00:25.998Z,5.50
2023-09-27T09:03:01.256Z,4.70
2023-09-27T09:05:31.498Z,5.27
2023-09-27T09:08:00.891Z,4.70
2023-09-27T09:10:30.280Z,4.40
2023-09-27T09:13:01.405Z,4.40
2023-09-27T09:15:45.455Z,4.10
2023-09-27T09:18:15.996Z,4.43
2023-09-27T09:20:52.316Z,4.00
2023-09-27T09:23:31.128Z,3.70
2023-09-27T09:26:00.108Z,3.50
2023-09-27T09:28:28.060Z,3.30
2023-09-27T09:30:55.960Z,3.53
2023-09-27T09:33:31.084Z,4.20
2023-09-27T09:35:58.911Z,4.07
2023-09-27T09:38:32.430Z,3.57
2023-09-27T09:41:03.633Z,3.47
2023-09-27T09:43:36.620Z,3.27
2023-09-27T09:46:07.612Z,3.20
2023-09-27T09:48:36.076Z,3.70
2023-09-27T09:51:07.592Z,3.80
2023-09-27T09:53:40.860Z,3.30
2023-09-27T09:59:04.273Z,3.40
2023-09-27T10:01:33.412Z,2.83
2023-09-27T10:04:05.301Z,3.23
2023-09-27T10:06:48.091Z,3.10
2023-09-27T10:09:18.293Z,3.00
2023-09-27T10:11:48.437Z,3.70
2023-09-27T10:14:18.417Z,2.87
2023-09-27T10:16:46.738Z,3.00
2023-09-27T10:19:28.603Z,3.30
2023-09-27T10:22:05.288Z,2.63
2023-09-27T10:24:36.064Z,2.73
2023-09-27T10:27:03.903Z,3.30
2023-09-27T10:29:31.563Z,3.20
2023-09-27T10:32:06.718Z,3.43
2023-09-27T10:34:42.176Z,3.53
2023-09-27T10:39:43.135Z,3.27
2023-09-27T10:42:11.062Z,2.50
2023-09-27T10:44:44.646Z,3.20
2023-09-27T10:47:15.005Z,3.67
2023-09-27T10:49:44.280Z,3.30
2023-09-27T10:52:18.662Z,3.47
2023-09-27T10:54:47.860Z,3.00
2023-09-27T10:57:15.697Z,2.73
2023-09-27T10:59:47.280Z,3.30
2023-09-27T11:02:15.001Z,3.70
2023-09-27T11:04:44.532Z,3.27
2023-09-27T11:07:12.196Z,3.30
2023-09-27T11:09:49.213Z,3.53
2023-09-27T11:12:23.791Z,3.57
2023-09-27T11:14:51.424Z,2.83
2023-09-27T11:17:44.753Z,3.43
2023-09-27T11:20:13.035Z,3.27
2023-09-27T11:22:40.666Z,3.27
2023-09-27T11:25:28.368Z,3.67
2023-09-27T11:27:57.038Z,3.00
2023-09-27T11:30:31.202Z,2.97
2023-09-27T11:32:59.842Z,2.20
2023-09-27T11:35:29.115Z,2.30
2023-09-27T11:38:05.988Z,3.37
2023-09-27T11:40:35.888Z,2.70
2023-09-27T11:43:04.126Z,2.73
2023-09-27T11:45:46.906Z,2.40
2023-09-27T11:48:15.203Z,2.73
2023-09-27T11:50:43.110Z,3.03
2023-09-27T11:53:12.430Z,2.60
2023-09-27T11:55:42.360Z,3.20
2023-09-27T11:58:10.757Z,2.90
2023-09-27T12:00:40.113Z,3.50
2023-09-27T12:03:07.978Z,2.90
2023-09-27T12:05:38.852Z,2.90
2023-09-27T12:08:32.098Z,2.53
2023-09-27T12:11:00.957Z,2.70
2023-09-27T12:13:28.550Z,3.07
2023-09-27T12:16:22.559Z,2.30
2023-09-27T12:18:50.316Z,2.80
2023-09-27T12:21:19.112Z,3.10
2023-09-27T12:23:48.370Z,2.63
2023-09-27T12:26:15.983Z,2.30
2023-09-27T12:28:44.685Z,2.27
2023-09-27T12:31:13.644Z,2.40
2023-09-27T12:33:41.732Z,2.40
2023-09-27T12:36:09.986Z,3.10
2023-09-27T12:38:37.580Z,2.90
2023-09-27T12:41:08.932Z,2.40
2023-09-27T12:43:37.132Z,2.87
2023-09-27T12:46:06.275Z,1.90
2023-09-27T12:48:35.287Z,2.67
2023-09-27T12:51:03.218Z,3.43
2023-09-27T12:53:32.093Z,2.83
2023-09-27T12:55:59.744Z,2.60
2023-09-27T12:58:27.433Z,2.60
2023-09-27T13:00:55.216Z,2.23
2023-09-27T13:03:24.396Z,2.40
2023-09-27T13:05:52.212Z,2.40
2023-09-27T13:08:19.892Z,2.47
2023-09-27T13:10:48.225Z,2.30
2023-09-27T13:13:15.776Z,2.60
2023-09-27T13:15:43.953Z,2.20
2023-09-27T13:18:11.768Z,3.20
2023-09-27T13:20:43.186Z,2.50
2023-09-27T13:23:11.445Z,2.53
2023-09-27T13:25:39.660Z,2.60
2023-09-27T13:28:07.248Z,2.50
2023-09-27T13:30:36.597Z,2.57
2023-09-27T13:33:04.932Z,2.47
2023-09-27T13:35:36.379Z,2.70
2023-09-27T13:38:06.165Z,2.90
2023-09-27T13:40:33.786Z,2.90
2023-09-27T13:43:02.292Z,2.60
2023-09-27T13:45:36.007Z,2.67
2023-09-27T13:48:04.847Z,3.23
2023-09-27T13:50:35.815Z,3.03
2023-09-27T13:53:04.186Z,3.60
2023-09-27T13:55:31.969Z,2.47
2023-09-27T13:57:59.822Z,3.00
2023-09-27T14:00:27.498Z,2.73
2023-09-27T14:02:56.111Z,3.00
2023-09-27T14:05:23.954Z,3.30
2023-09-27T14:07:51.635Z,2.87
2023-09-27T14:10:19.335Z,2.53
2023-09-27T14:12:46.917Z,3.20
2023-09-27T14:15:15.858Z,2.67
2023-09-27T14:17:44.723Z,3.00
2023-09-27T14:20:18.049Z,2.90
2023-09-27T14:22:47.538Z,2.60
2023-09-27T14:25:15.179Z,3.20
2023-09-27T14:27:43.907Z,3.37
2023-09-27T14:30:11.826Z,2.80
2023-09-27T14:32:40.897Z,2.80
2023-09-27T14:35:09.038Z,3.27
2023-09-27T14:37:37.451Z,3.20
2023-09-27T14:40:05.534Z,3.33
2023-09-27T14:42:33.171Z,2.70
2023-09-27T14:45:01.670Z,3.17
2023-09-27T14:47:31.027Z,2.57
2023-09-27T14:49:58.857Z,3.00
2023-09-27T14:52:26.715Z,3.27
2023-09-27T14:54:54.301Z,2.70
2023-09-27T14:57:28.202Z,2.93
2023-09-27T14:59:56.163Z,3.03
2023-09-27T15:02:24.334Z,3.00
2023-09-27T15:04:52.522Z,3.00
2023-09-27T15:07:20.693Z,2.60
2023-09-27T15:09:48.379Z,2.53
2023-09-27T15:12:15.953Z,2.57
2023-09-27T15:14:43.529Z,3.07
2023-09-27T15:17:12.176Z,3.10
2023-09-27T15:19:40.665Z,3.00
2023-09-27T15:22:08.265Z,3.10
2023-09-27T15:24:38.520Z,2.70
2023-09-27T15:27:06.222Z,3.30
2023-09-27T15:29:34.479Z,3.10
2023-09-27T15:32:02.130Z,2.80
2023-09-27T15:34:31.232Z,3.03
2023-09-27T15:36:59.041Z,2.70
2023-09-27T15:39:27.838Z,2.80
2023-09-27T15:41:57.737Z,3.07
2023-09-27T15:44:26.146Z,2.83
2023-09-27T15:46:53.791Z,3.30
2023-09-27T15:49:21.855Z,2.90
2023-09-27T15:51:49.634Z,2.37
2023-09-27T15:54:19.708Z,3.30
2023-09-27T15:56:47.446Z,3.03
2023-09-27T15:59:15.845Z,3.10
2023-09-27T16:01:46.178Z,3.07
2023-09-27T16:04:14.533Z,3.20
2023-09-27T16:06:42.280Z,3.40
2023-09-27T16:09:16.337Z,3.00
2023-09-27T16:11:44.017Z,3.10
2023-09-27T16:14:12.777Z,3.07
2023-09-27T16:16:40.553Z,3.00
2023-09-27T16:19:13.767Z,3.00
2023-09-27T16:21:42.692Z,3.63
2023-09-27T16:24:12.976Z,3.50
2023-09-27T16:26:41.815Z,2.90
2023-09-27T16:29:09.733Z,3.13
2023-09-27T16:31:38.006Z,3.47
2023-09-27T16:34:06.690Z,3.40
2023-09-27T16:36:35.747Z,3.30
2023-09-27T16:39:04.072Z,3.17
2023-09-27T16:41:58.319Z,3.17
2023-09-27T16:44:26.008Z,3.30
2023-09-27T16:46:54.473Z,3.60
2023-09-27T16:49:22.173Z,3.20
2023-09-27T16:51:49.905Z,3.53
2023-09-27T16:54:17.527Z,3.33
2023-09-27T16:56:45.174Z,3.90
2023-09-27T16:59:16.230Z,4.27
2023-09-27T17:01:45.570Z,4.10
2023-09-27T17:04:13.953Z,3.87
2023-09-27T17:07:06.977Z,4.10
2023-09-27T17:09:35.903Z,3.50
2023-09-27T17:12:03.604Z,4.40
2023-09-27T17:14:31.892Z,4.00
2023-09-27T17:16:59.543Z,4.10
2023-09-27T17:19:28.437Z,4.47
2023-09-27T17:21:56.918Z,4.77
2023-09-27T17:24:25.459Z,4.47
2023-09-27T17:26:53.931Z,4.90
2023-09-27T17:29:21.488Z,5.13
2023-09-27T17:31:49.840Z,5.70
2023-09-27T17:34:19.300Z,5.80
2023-09-27T17:36:46.903Z,6.30
2023-09-27T17:39:15.675Z,6.20
2023-09-27T17:41:45.295Z,5.93
2023-09-27T17:44:12.834Z,5.93
2023-09-27T17:46:40.711Z,5.73
2023-09-27T17:49:08.372Z,5.23
2023-09-27T17:51:39.169Z,5.77
2023-09-27T17:54:08.305Z,6.00
2023-09-27T17:56:35.865Z,4.60
2023-09-27T17:59:03.525Z,5.80
2023-09-27T18:01:31.363Z,5.73
2023-09-27T18:03:59.242Z,5.30
2023-09-27T18:06:27.074Z,5.57
2023-09-27T18:08:54.794Z,5.90
2023-09-27T18:11:22.391Z,5.53
2023-09-27T18:13:49.961Z,8.17
2023-09-27T18:16:19.479Z,6.10
2023-09-27T18:18:49.334Z,5.90
2023-09-27T18:21:21.001Z,6.00
2023-09-27T18:23:50.004Z,5.90
2023-09-27T18:26:19.912Z,5.83
2023-09-27T18:28:47.877Z,6.13
2023-09-27T18:31:15.656Z,5.43
2023-09-27T18:33:43.860Z,5.47
2023-09-27T18:36:12.289Z,5.80
2023-09-27T18:38:40.002Z,5.70
2023-09-27T18:41:08.227Z,6.20
2023-09-27T18:43:36.021Z,5.93
2023-09-27T18:46:03.818Z,6.20
2023-09-27T18:48:32.212Z,6.33
2023-09-27T18:51:00.075Z,5.80
2023-09-27T18:53:28.720Z,6.20
2023-09-27T18:55:57.296Z,5.27
2023-09-27T18:58:25.436Z,6.30
2023-09-27T19:00:53.425Z,6.50
2023-09-27T19:03:21.176Z,7.57
2023-09-27T19:05:51.129Z,8.20
2023-09-27T19:08:22.604Z,10.33
2023-09-27T19:10:51.071Z,15.87
2023-09-27T19:13:18.852Z,12.23
2023-09-27T19:15:46.609Z,10.90
2023-09-27T19:18:14.383Z,9.87
2023-09-27T19:20:42.755Z,10.67
2023-09-27T19:23:11.240Z,12.40
2023-09-27T19:26:04.372Z,11.77
2023-09-27T19:28:34.276Z,9.60
2023-09-27T19:31:02.181Z,10.47
2023-09-27T19:33:29.819Z,10.00
2023-09-27T19:35:57.510Z,9.50
2023-09-27T19:38:25.760Z,10.17
2023-09-27T19:40:54.306Z,9.70
2023-09-27T19:43:22.006Z,9.90
2023-09-27T19:45:50.147Z,9.97
2023-09-27T19:48:17.872Z,9.20
2023-09-27T19:50:46.640Z,8.70
2023-09-27T19:53:14.385Z,8.60
2023-09-27T19:55:42.328Z,9.37
2023-09-27T19:58:10.073Z,8.90
2023-09-27T20:00:37.733Z,9.20
2023-09-27T20:03:05.774Z,9.07
2023-09-27T20:05:34.127Z,9.03
2023-09-27T20:08:02.150Z,8.70
2023-09-27T20:10:29.856Z,9.30
2023-09-27T20:12:57.830Z,8.77
2023-09-27T20:15:25.472Z,8.83
2023-09-27T20:17:54.063Z,9.60
2023-09-27T20:20:22.537Z,9.37
2023-09-27T20:22:50.629Z,8.73
2023-09-27T20:25:18.281Z,10.23
2023-09-27T20:27:45.850Z,9.30
2023-09-27T20:30:14.137Z,9.73
2023-09-27T20:32:41.835Z,9.53
2023-09-27T20:35:09.799Z,9.03
2023-09-27T20:37:37.752Z,9.60
2023-09-27T20:40:05.681Z,9.37
2023-09-27T20:42:33.286Z,8.90
2023-09-27T20:45:01.735Z,9.00
2023-09-27T20:47:29.528Z,9.60
2023-09-27T20:49:57.177Z,9.90
2023-09-27T20:52:26.093Z,9.27
2023-09-27T20:54:53.942Z,9.27
2023-09-27T20:57:23.412Z,9.07
2023-09-27T20:59:50.966Z,9.00
2023-09-27T21:02:18.685Z,9.40
2023-09-27T21:04:46.388Z,9.47
2023-09-27T21:07:14.442Z,8.97
2023-09-27T21:09:43.049Z,9.10
2023-09-27T21:12:11.548Z,9.90
2023-09-27T21:14:39.487Z,9.67
2023-09-27T21:17:08.525Z,9.83
2023-09-27T21:19:36.216Z,10.00
2023-09-27T21:22:04.858Z,8.67
2023-09-27T21:24:32.481Z,9.00
2023-09-27T21:27:00.667Z,8.80
2023-09-27T21:29:28.307Z,8.90
2023-09-27T21:31:55.943Z,9.20
2023-09-27T21:34:23.620Z,8.33
2023-09-27T21:36:52.234Z,8.93
2023-09-27T21:39:19.783Z,8.40
2023-09-27T21:41:48.052Z,8.37
2023-09-27T21:44:19.692Z,9.20
2023-09-27T21:46:47.724Z,8.93
2023-09-27T21:49:15.433Z,8.57
2023-09-27T21:51:43.062Z,9.30
2023-09-27T21:54:10.610Z,8.93
2023-09-27T21:56:38.709Z,8.83
2023-09-27T21:59:06.359Z,8.80
2023-09-27T22:01:34.051Z,8.40
2023-09-27T22:04:01.701Z,8.43
2023-09-27T22:06:29.324Z,7.87
2023-09-27T22:09:11.685Z,8.20
2023-09-27T22:11:40.421Z,8.60
2023-09-27T22:14:08.555Z,8.90
2023-09-27T22:16:37.310Z,8.07
2023-09-27T22:19:12.192Z,8.03
2023-09-27T22:21:45.862Z,7.93
2023-09-27T22:24:14.872Z,7.57
2023-09-27T22:26:46.651Z,7.23
2023-09-27T22:29:15.195Z,8.07
2023-09-27T22:31:43.615Z,7.87
2023-09-27T22:34:12.939Z,7.10
2023-09-27T22:36:47.379Z,7.90
2023-09-27T22:39:17.077Z,8.00
2023-09-27T22:41:47.027Z,6.70
2023-09-27T22:44:23.050Z,7.50
2023-09-27T22:46:54.592Z,8.40
2023-09-27T22:49:24.126Z,8.20
2023-09-27T22:51:52.476Z,7.43
2023-09-27T22:54:21.277Z,7.50
2023-09-27T22:56:50.240Z,7.17
2023-09-27T22:59:22.431Z,7.73
2023-09-27T23:01:55.499Z,7.23
2023-09-27T23:04:23.962Z,7.10
2023-09-27T23:07:03.298Z,7.80
2023-09-27T23:09:35.727Z,8.07
2023-09-27T23:12:20.983Z,7.73
2023-09-27T23:15:07.732Z,8.13
2023-09-27T23:17:57.665Z,8.13
2023-09-27T23:20:32.041Z,8.73
2023-09-27T23:23:06.882Z,8.57
2023-09-27T23:25:44.691Z,7.53
2023-09-27T23:28:29.255Z,8.10
2023-09-27T23:30:57.384Z,8.27
2023-09-27T23:33:25.866Z,9.40
2023-09-27T23:35:53.678Z,9.30
2023-09-27T23:38:41.589Z,8.53
2023-09-27T23:41:09.328Z,9.23
2023-09-27T23:43:43.390Z,9.00
2023-09-27T23:46:21.185Z,9.53
2023-09-27T23:48:49.572Z,9.30
2023-09-27T23:51:17.524Z,9.53
2023-09-27T23:53:45.474Z,9.07
2023-09-27T23:56:13.156Z,8.47
2023-09-27T23:58:42.978Z,8.40
